Time;durP1;ratioP1;P1;durP2;ratioP2;P2;SDS_P1;SDS_P2;PMS_P1;PMS_P2;Temp;Humidity;BMP_temperature;BMP_pressure;BME280_temperature;BME280_humidity;BME280_pressure;Samples;Min_cycle;Max_cycle;Signal;HPM_P1;HPM_P2
2022/11/10 00:00:26;;;;;;;14.23;7.22;;;;;;;11.84;76.38;101557.84;5089128;28;20115;-78
2022/11/10 00:02:51;;;;;;;15.25;7.72;;;;;;;11.74;76.08;101537.06;5095982;28;20056;-78
2022/11/10 00:05:17;;;;;;;15.23;8.02;;;;;;;11.88;76.48;101562.06;5096124;28;20091;-77
2022/11/10 00:07:42;;;;;;;14.38;8.90;;;;;;;11.81;76.41;101552.69;5091697;28;20036;-77
2022/11/10 00:10:08;;;;;;;20.25;8.38;;;;;;;11.87;76.27;101557.63;5088148;28;20024;-77
2022/11/10 00:12:34;;;;;;;29.30;7.20;;;;;;;11.83;76.02;101558.81;5088642;28;20691;-77
2022/11/10 00:17:44;;;;;;;22.02;6.63;;;;;;;11.79;76.05;101551.94;5088143;28;20031;-77
2022/11/10 00:20:10;;;;;;;29.65;6.85;;;;;;;11.78;76.06;101552.91;5088154;28;20114;-78
2022/11/10 00:22:37;;;;;;;42.75;8.30;;;;;;;11.75;75.99;101547.72;5087624;28;20782;-77
2022/11/10 00:25:03;;;;;;;18.65;7.43;;;;;;;11.75;76.01;101552.25;5088116;28;20036;-77
2022/11/10 00:27:30;;;;;;;13.05;6.65;;;;;;;11.71;75.81;101546.22;5087914;28;20085;-77
2022/11/10 00:29:55;;;;;;;30.48;7.07;;;;;;;11.70;75.64;101541.81;5088032;28;20056;-78
2022/11/10 00:32:21;;;;;;;23.27;6.63;;;;;;;11.72;75.77;101547.09;5087825;28;20111;-77
2022/11/10 00:34:46;;;;;;;16.02;5.90;;;;;;;11.71;75.60;101548.91;5087890;28;20476;-78
2022/11/10 00:37:11;;;;;;;47.10;6.75;;;;;;;11.67;76.09;101533.06;5070520;28;20020;-77
2022/11/10 00:39:37;;;;;;;21.85;8.43;;;;;;;11.64;75.87;101526.06;5088750;28;20116;-76
2022/11/10 00:42:02;;;;;;;74.60;8.32;;;;;;;11.68;76.04;101546.41;5088762;28;20028;-77
2022/11/10 00:44:28;;;;;;;17.20;5.35;;;;;;;11.63;75.81;101540.50;5088639;28;20081;-77
2022/11/10 00:46:53;;;;;;;20.50;5.63;;;;;;;11.63;76.36;101539.63;5088908;28;20534;-77
2022/11/10 00:49:19;;;;;;;15.60;5.90;;;;;;;11.60;76.43;101542.53;5088684;28;20036;-77
2022/11/10 00:51:44;;;;;;;10.55;5.93;;;;;;;11.59;76.36;101540.84;5088619;28;20477;-76
2022/11/10 00:54:10;;;;;;;11.70;5.50;;;;;;;11.50;76.40;101525.31;5088715;28;20479;-77
2022/11/10 00:56:35;;;;;;;9.80;5.57;;;;;;;11.51;76.71;101540.50;5088990;28;20453;-77
2022/11/10 00:59:01;;;;;;;13.15;5.07;;;;;;;11.50;76.59;101542.31;5088597;28;20115;-76
2022/11/10 01:01:26;;;;;;;13.70;5.63;;;;;;;11.50;76.75;101542.31;5089093;28;20459;-77
2022/11/10 01:03:53;;;;;;;23.90;5.80;;;;;;;11.47;76.73;101531.75;5088918;28;20035;-76
2022/11/10 01:06:20;;;;;;;20.60;6.05;;;;;;;11.51;76.45;101535.09;5088527;28;20020;-77
2022/11/10 01:08:45;;;;;;;12.05;4.60;;;;;;;11.27;75.88;101494.63;5088718;28;20038;-77
2022/11/10 01:11:14;;;;;;;15.77;5.53;;;;;;;11.45;76.06;101528.31;5094125;28;20103;-76
2022/11/10 01:13:40;;;;;;;14.23;6.15;;;;;;;11.41;76.17;101526.81;5103384;28;20043;-77
2022/11/10 01:16:30;;;;;;;15.80;5.97;;;;;;;11.37;76.48;101530.72;5103935;28;20028;-75
2022/11/10 01:19:00;;;;;;;17.92;6.13;;;;;;;11.34;76.04;101520.97;4991575;28;20452;-77
2022/11/10 01:21:27;;;;;;;15.95;6.55;;;;;;;11.23;76.01;101520.03;4990591;28;20228;-77
2022/11/10 01:23:53;;;;;;;18.88;5.85;;;;;;;11.29;76.22;101522.28;4990746;28;20058;-76
2022/11/10 01:26:18;;;;;;;17.75;6.35;;;;;;;11.29;76.13;101527.66;4990159;28;20026;-77
2022/11/10 01:28:44;;;;;;;14.45;6.32;;;;;;;11.24;76.17;101529.84;4990275;28;20056;-76
2022/11/10 01:31:16;;;;;;;21.33;6.35;;;;;;;11.18;76.94;101535.66;4990392;28;20113;-77
2022/11/10 01:33:42;;;;;;;10.85;5.55;;;;;;;11.12;76.91;101533.38;4989938;28;20140;-77
2022/11/10 01:36:09;;;;;;;11.45;5.55;;;;;;;11.17;77.00;101524.00;4990069;28;20046;-76
2022/11/10 01:38:36;;;;;;;25.08;6.50;;;;;;;11.09;77.24;101525.50;4989886;28;20093;-76
2022/11/10 01:41:04;;;;;;;26.25;6.20;;;;;;;11.08;77.41;101523.78;4989845;28;20532;-76
2022/11/10 01:43:31;;;;;;;16.15;6.55;;;;;;;11.09;77.29;101525.50;4989950;28;20038;-77
2022/11/10 01:46:16;;;;;;;21.85;6.22;;;;;;;11.11;77.56;101518.19;4990279;28;20026;-77
2022/11/10 01:48:59;;;;;;;26.52;7.13;;;;;;;11.10;77.09;101527.25;4989308;28;20046;-77
2022/11/10 01:51:48;;;;;;;14.80;6.18;;;;;;;11.04;77.11;101530.38;4989829;28;20030;-77
2022/11/10 01:54:28;;;;;;;13.65;6.38;;;;;;;11.00;76.87;101526.16;4989784;28;20057;-77
2022/11/10 01:57:01;;;;;;;10.65;6.35;;;;;;;10.91;77.11;101517.75;5081766;28;20106;-77
2022/11/10 01:59:29;;;;;;;20.63;6.18;;;;;;;10.90;77.53;101516.03;5091674;28;20453;-77
2022/11/10 02:02:00;;;;;;;17.90;7.22;;;;;;;10.87;77.88;101513.53;5091562;28;20077;-77
2022/11/10 02:04:26;;;;;;;20.30;6.78;;;;;;;10.92;77.32;101523.97;5091397;28;20028;-77
2022/11/10 02:06:53;;;;;;;23.42;6.72;;;;;;;10.83;77.73;101508.47;5091134;28;20020;-76
2022/11/10 02:09:19;;;;;;;11.52;5.60;;;;;;;10.92;77.88;101529.34;5091467;28;20020;-77
2022/11/10 02:11:46;;;;;;;13.23;5.72;;;;;;;10.96;78.17;101527.31;5091704;28;20028;-76
2022/11/10 02:14:13;;;;;;;22.67;6.68;;;;;;;10.95;78.49;101522.94;5091950;28;20093;-77
2022/11/10 02:16:40;;;;;;;12.48;6.10;;;;;;;10.87;78.65;101527.00;5091771;28;21208;-76
2022/11/10 02:19:24;;;;;;;16.65;6.75;;;;;;;10.87;79.18;101524.31;5072755;28;20425;-76
2022/11/10 02:21:49;;;;;;;11.65;6.00;;;;;;;10.91;78.11;101528.53;5058210;28;20521;-76
2022/11/10 02:24:15;;;;;;;14.20;6.43;;;;;;;10.98;78.25;101528.09;5107517;28;20024;-76
2022/11/10 02:26:47;;;;;;;14.05;6.05;;;;;;;10.97;78.01;101515.59;5100463;28;20032;-78
2022/11/10 02:29:14;;;;;;;9.95;6.22;;;;;;;10.93;78.20;101523.88;5092959;28;20093;-77
2022/11/10 02:31:40;;;;;;;9.60;5.82;;;;;;;10.72;78.79;101485.00;5090898;28;20589;-78
2022/11/10 02:34:05;;;;;;;10.23;5.60;;;;;;;10.93;78.52;101526.56;5090773;28;20134;-76
2022/11/10 02:36:30;;;;;;;22.52;6.47;;;;;;;10.94;78.63;101524.75;5090895;28;20030;-76
2022/11/10 02:38:56;;;;;;;24.33;6.22;;;;;;;10.95;78.71;101517.53;5090745;28;20028;-76
2022/11/10 02:41:21;;;;;;;11.27;5.55;;;;;;;10.98;78.33;101528.09;5091073;28;20596;-76
2022/11/10 02:43:47;;;;;;;14.68;6.47;;;;;;;10.98;78.71;101528.09;5090777;28;20032;-77
2022/11/10 02:46:12;;;;;;;11.13;6.43;;;;;;;10.98;78.28;101523.56;5090583;28;20093;-76
2022/11/10 02:48:38;;;;;;;19.48;6.18;;;;;;;10.96;78.59;101530.88;5090835;28;20027;-77
2022/11/10 02:51:03;;;;;;;10.73;5.25;;;;;;;10.97;78.30;101523.66;5072398;28;20031;-78
2022/11/10 02:53:29;;;;;;;7.40;5.45;;;;;;;10.98;78.20;101533.47;5090623;28;20060;-77
2022/11/10 02:55:54;;;;;;;9.70;6.15;;;;;;;10.95;78.35;101528.31;5090473;28;20039;-76
2022/11/10 02:58:19;;;;;;;12.48;7.40;;;;;;;10.95;78.10;101515.69;5090439;28;20030;-77
2022/11/10 03:00:45;;;;;;;22.63;6.20;;;;;;;10.95;77.73;101513.00;5037631;28;20043;-77
2022/11/10 03:03:10;;;;;;;18.52;6.35;;;;;;;10.97;77.73;101515.59;5090997;28;20024;-77
2022/11/10 03:05:36;;;;;;;12.45;7.00;;;;;;;10.84;78.30;101519.13;5090545;28;20035;-77
2022/11/10 03:08:02;;;;;;;17.38;6.63;;;;;;;10.85;78.86;101518.19;5090590;28;20040;-76
2022/11/10 03:10:29;;;;;;;10.68;6.60;;;;;;;10.87;78.90;101515.38;5090559;28;20082;-77
2022/11/10 03:12:56;;;;;;;17.45;6.07;;;;;;;10.76;78.99;101499.94;5090187;28;20036;-77
2022/11/10 03:15:22;;;;;;;16.73;6.57;;;;;;;10.86;79.12;101522.56;5090121;28;20020;-77
2022/11/10 03:17:48;;;;;;;8.27;5.00;;;;;;;10.86;78.85;101511.81;5089957;28;20101;-76
2022/11/10 03:20:14;;;;;;;10.40;6.28;;;;;;;10.86;78.77;101511.81;5090212;28;20027;-77
2022/11/10 03:22:39;;;;;;;17.45;5.88;;;;;;;11.00;78.52;101528.84;5090245;28;20052;-77
2022/11/10 03:25:06;;;;;;;9.63;5.68;;;;;;;11.00;77.97;101531.53;5090391;28;20039;-77
2022/11/10 03:27:31;;;;;;;29.75;7.03;;;;;;;11.00;78.57;101527.03;5090107;28;20051;-77
2022/11/10 03:29:57;;;;;;;42.97;8.18;;;;;;;11.00;78.06;101535.09;5090232;28;20443;-76
2022/11/10 03:32:22;;;;;;;22.58;6.25;;;;;;;11.03;77.67;101531.31;5095597;28;20105;-75
2022/11/10 03:34:48;;;;;;;18.90;5.93;;;;;;;10.98;77.35;101531.63;5103377;28;20044;-76
2022/11/10 03:37:13;;;;;;;16.88;5.05;;;;;;;10.78;77.85;101492.63;5103075;28;20382;-77
2022/11/10 03:39:39;;;;;;;43.13;7.68;;;;;;;10.92;78.10;101527.53;5091784;28;20047;-78
2022/11/10 03:42:04;;;;;;;41.63;8.25;;;;;;;10.93;77.96;101525.72;5089761;28;20027;-77
2022/11/10 03:44:30;;;;;;;23.20;6.80;;;;;;;10.92;78.25;101532.91;5089564;28;20537;-77
2022/11/10 03:46:55;;;;;;;22.60;6.32;;;;;;;10.79;77.47;101502.41;5089597;28;20035;-76
2022/11/10 03:49:20;;;;;;;24.77;6.20;;;;;;;10.72;77.48;101490.38;5089272;28;20552;-76
2022/11/10 03:51:46;;;;;;;16.50;5.47;;;;;;;10.91;77.75;101528.53;5037090;28;20036;-77
2022/11/10 03:54:11;;;;;;;7.32;5.07;;;;;;;10.88;78.35;101531.41;5089814;28;20474;-77
2022/11/10 03:56:37;;;;;;;15.77;5.22;;;;;;;10.90;78.18;101521.41;5089219;28;20028;-77
2022/11/10 03:59:02;;;;;;;21.20;6.70;;;;;;;10.93;77.92;101531.97;5089222;28;20078;-76
2022/11/10 04:01:27;;;;;;;19.70;6.15;;;;;;;10.86;77.70;101519.00;5089265;28;20069;-76
2022/11/10 04:03:53;;;;;;;16.42;6.13;;;;;;;10.95;77.90;101528.31;5089465;28;20407;-77
2022/11/10 04:09:04;;;;;;;37.05;7.70;;;;;;;10.65;77.48;101489.06;5089299;28;20049;-77
2022/11/10 04:17:00;;;;;;;25.85;6.05;;;;;;;10.90;77.64;101548.31;5089594;28;20028;-77
2022/11/10 04:19:26;;;;;;;20.65;5.97;;;;;;;10.90;77.71;101542.94;5089157;28;20034;-77
2022/11/10 04:21:52;;;;;;;21.25;5.47;;;;;;;10.85;77.60;101542.41;5089175;28;20024;-76
2022/11/10 04:24:17;;;;;;;30.60;6.03;;;;;;;10.84;77.55;101540.66;5088907;28;20509;-77
2022/11/10 04:26:43;;;;;;;29.45;7.75;;;;;;;10.65;78.17;101505.19;5089233;28;20094;-76
2022/11/10 04:29:11;;;;;;;16.70;7.82;;;;;;;10.83;78.30;101546.13;5089160;28;20028;-77
2022/11/10 04:31:40;;;;;;;24.83;7.22;;;;;;;10.65;78.51;101534.78;5089094;28;20028;-76
2022/11/10 04:34:08;;;;;;;26.13;7.10;;;;;;;10.75;78.91;101554.75;5089161;28;20067;-77
2022/11/10 04:36:36;;;;;;;49.85;7.95;;;;;;;10.80;78.92;101551.72;5088833;28;20441;-77
2022/11/10 04:39:03;;;;;;;18.30;7.72;;;;;;;10.80;78.29;101552.59;5088835;28;20035;-77
2022/11/10 04:41:30;;;;;;;21.42;7.93;;;;;;;10.77;78.21;101551.94;5089408;28;20131;-75
2022/11/10 04:43:56;;;;;;;46.53;8.27;;;;;;;10.69;78.13;101533.63;5100008;28;20051;-76
2022/11/10 04:46:37;;;;;;;126.50;14.80;;;;;;;10.83;77.65;101557.75;5102948;28;20020;-77
2022/11/10 04:49:04;;;;;;;50.53;7.93;;;;;;;10.74;77.80;101550.31;5098475;28;20169;-76
2022/11/10 04:51:33;;;;;;;30.27;8.75;;;;;;;10.76;77.59;101561.81;5093379;28;20020;-77
2022/11/10 04:53:59;;;;;;;53.67;9.50;;;;;;;10.73;77.55;101564.72;5092839;28;20073;-77
2022/11/10 04:56:25;;;;;;;33.00;8.77;;;;;;;10.64;77.06;101557.25;5092634;28;20035;-77
2022/11/10 04:58:50;;;;;;;55.38;8.52;;;;;;;10.75;77.33;101564.63;5092443;28;20409;-75
2022/11/10 05:01:21;;;;;;;42.15;9.30;;;;;;;10.75;77.27;101565.50;5092978;28;20404;-74
2022/11/10 05:03:47;;;;;;;48.17;8.88;;;;;;;10.61;77.11;101545.88;5092539;28;20028;-76
2022/11/10 05:06:14;;;;;;;62.80;12.25;;;;;;;10.75;77.69;101570.00;5092972;28;20024;-74
2022/11/10 05:08:40;;;;;;;62.83;10.07;;;;;;;10.77;77.60;101573.44;5092585;28;20032;-77
2022/11/10 05:11:06;;;;;;;41.63;8.70;;;;;;;10.77;77.64;101568.06;5089805;28;20032;-78
2022/11/10 05:13:32;;;;;;;52.13;10.38;;;;;;;10.70;77.77;101556.84;5091644;28;20483;-76
2022/11/10 05:15:58;;;;;;;108.20;12.32;;;;;;;10.70;77.52;101562.22;5091658;28;20028;-77
2022/11/10 05:18:24;;;;;;;169.90;15.43;;;;;;;10.83;78.26;101573.03;5091369;28;20043;-74
2022/11/10 05:20:52;;;;;;;104.32;14.55;;;;;;;10.87;78.66;101579.94;5091568;28;20606;-77
2022/11/10 05:26:12;;;;;;;115.03;13.63;;;;;;;10.86;78.69;101581.78;5091217;28;20089;-76
2022/11/10 05:28:39;;;;;;;107.53;16.05;;;;;;;10.89;78.92;101586.09;5090890;28;20510;-77
2022/11/10 05:31:05;;;;;;;128.50;15.70;;;;;;;10.86;78.89;101580.91;5091202;28;20032;-78
2022/11/10 05:33:31;;;;;;;70.50;11.18;;;;;;;10.87;79.16;101586.22;5091257;28;20036;-76
2022/11/10 05:35:56;;;;;;;89.68;13.15;;;;;;;10.73;79.18;101559.34;5055055;28;20039;-76
2022/11/10 05:38:22;;;;;;;73.97;11.95;;;;;;;10.93;78.89;101595.69;5091390;28;20459;-76
2022/11/10 05:40:48;;;;;;;112.15;15.20;;;;;;;10.82;79.09;101577.56;5091217;28;20103;-75
2022/11/10 05:43:13;;;;;;;96.68;13.77;;;;;;;11.01;79.18;101603.25;5091100;28;20028;-73
2022/11/10 05:45:39;;;;;;;68.05;12.30;;;;;;;11.01;79.18;101605.94;5091128;28;20031;-73
2022/11/10 05:48:04;;;;;;;89.97;13.80;;;;;;;11.06;79.50;101603.78;5091390;28;20055;-75
2022/11/10 05:50:29;;;;;;;120.50;13.70;;;;;;;11.08;79.84;101607.25;5090732;28;20032;-74
2022/11/10 05:52:55;;;;;;;158.55;18.00;;;;;;;11.15;80.05;101611.25;5095370;28;20031;-75
2022/11/10 05:55:26;;;;;;;185.82;17.40;;;;;;;11.20;79.90;101609.09;5097087;28;20020;-75
2022/11/10 05:57:53;;;;;;;135.10;16.73;;;;;;;11.13;80.60;101597.88;5095512;28;20024;-73
2022/11/10 06:00:22;;;;;;;98.85;15.27;;;;;;;11.30;80.63;101615.59;5090919;28;20493;-73
2022/11/10 06:02:56;;;;;;;104.30;16.90;;;;;;;11.39;80.68;101626.59;5090810;28;20028;-74
2022/11/10 06:05:21;;;;;;;168.77;15.18;;;;;;;11.50;80.25;101625.00;5090754;28;20069;-73
2022/11/10 06:07:47;;;;;;;110.55;18.63;;;;;;;11.60;80.65;101635.00;5090298;28;20036;-74
2022/11/10 06:10:12;;;;;;;152.52;17.90;;;;;;;11.67;80.83;101620.16;5090313;28;20016;-75
2022/11/10 06:12:38;;;;;;;140.77;17.50;;;;;;;11.84;81.15;101633.31;5071865;28;20112;-75
2022/11/10 06:15:04;;;;;;;96.78;17.38;;;;;;;11.92;81.14;101633.66;5090447;28;20028;-74
2022/11/10 06:17:30;;;;;;;66.53;16.35;;;;;;;12.03;80.95;101635.56;5090048;28;20032;-74
2022/11/10 06:19:55;;;;;;;109.22;18.83;;;;;;;12.09;81.43;101640.53;5089882;28;20050;-74
2022/11/10 06:22:20;;;;;;;81.25;20.30;;;;;;;12.21;81.48;101644.19;5089990;28;20180;-75
2022/11/10 06:24:46;;;;;;;94.93;19.67;;;;;;;12.29;81.32;101641.81;5089975;28;20028;-75
2022/11/10 06:27:11;;;;;;;76.03;17.00;;;;;;;12.43;80.73;101647.06;5089799;28;20128;-75
2022/11/10 06:29:37;;;;;;;74.32;16.23;;;;;;;12.42;80.90;101630.00;5089868;28;20035;-75
2022/11/10 06:32:02;;;;;;;60.30;15.55;;;;;;;12.64;80.22;101647.31;5090456;28;20031;-74
2022/11/10 06:34:28;;;;;;;48.20;19.05;;;;;;;12.74;80.08;101648.38;5089769;28;20048;-77
2022/11/10 06:36:53;;;;;;;64.70;19.58;;;;;;;12.68;79.97;101616.44;5090016;28;20032;-77
2022/11/10 06:39:18;;;;;;;61.85;20.65;;;;;;;12.91;79.42;101639.84;5089503;28;20036;-74
2022/11/10 06:41:44;;;;;;;91.78;20.88;;;;;;;13.03;78.92;101657.84;5089616;28;20035;-75
2022/11/10 06:44:10;;;;;;;49.63;20.05;;;;;;;13.15;78.87;101650.69;5089696;28;20028;-75
2022/11/10 06:46:36;;;;;;;58.80;21.30;;;;;;;13.25;78.30;101659.81;5089718;28;20304;-75
2022/11/10 06:49:02;;;;;;;83.32;22.75;;;;;;;13.33;77.65;101660.09;5090863;28;20043;-76
2022/11/10 06:51:27;;;;;;;50.33;20.90;;;;;;;13.38;77.54;101642.56;5090353;28;20499;-75
2022/11/10 06:53:52;;;;;;;58.10;21.08;;;;;;;13.52;77.09;101655.84;5090780;28;20542;-74
2022/11/10 06:56:18;;;;;;;59.88;20.40;;;;;;;13.61;76.83;101654.28;5090208;28;20036;-76
2022/11/10 06:58:43;;;;;;;65.15;23.38;;;;;;;13.71;76.65;101649.00;5090667;28;20024;-75
2022/11/10 07:01:09;;;;;;;104.18;25.83;;;;;;;13.80;76.38;101651.00;5091628;28;20119;-75
2022/11/10 07:03:36;;;;;;;97.95;27.23;;;;;;;13.89;75.95;101658.38;5098860;28;20024;-74
2022/11/10 07:06:01;;;;;;;67.70;25.38;;;;;;;13.98;75.49;101663.06;5101399;28;20039;-76
2022/11/10 07:08:27;;;;;;;81.40;23.88;;;;;;;14.05;75.10;101653.50;5097384;28;20039;-76
2022/11/10 07:10:54;;;;;;;46.20;16.73;;;;;;;14.10;74.97;101656.69;5054474;28;20059;-75
2022/11/10 07:13:22;;;;;;;39.05;16.05;;;;;;;13.92;75.72;101614.88;5090491;28;20111;-74
2022/11/10 07:15:47;;;;;;;68.25;17.65;;;;;;;14.14;76.51;101659.03;5090407;28;20046;-75
2022/11/10 07:18:13;;;;;;;64.05;20.40;;;;;;;14.23;76.63;101656.56;5090054;28;20035;-74
2022/11/10 07:20:39;;;;;;;56.88;21.45;;;;;;;14.17;76.99;101644.41;5054148;28;20032;-75
2022/11/10 07:23:06;;;;;;;63.70;24.63;;;;;;;14.31;76.64;101656.81;5088899;28;20074;-75
2022/11/10 07:25:34;;;;;;;49.60;16.88;;;;;;;14.42;76.95;101656.84;5089852;28;20030;-75
2022/11/10 07:28:02;;;;;;;62.38;22.38;;;;;;;14.46;75.80;101652.91;5089822;28;20128;-76
2022/11/10 07:30:29;;;;;;;88.82;24.05;;;;;;;14.56;75.35;101645.75;5089898;28;20042;-74
2022/11/10 07:33:04;;;;;;;50.85;18.00;;;;;;;14.49;74.93;101622.88;5090034;28;20127;-75
2022/11/10 07:35:30;;;;;;;49.70;17.05;;;;;;;14.67;75.04;101654.72;5089385;28;20076;-75
2022/11/10 07:38:14;;;;;;;81.80;21.88;;;;;;;14.74;74.94;101656.94;5089563;28;20085;-75
2022/11/10 07:40:39;;;;;;;45.30;17.33;;;;;;;14.78;75.04;101651.13;5089588;28;20039;-75
2022/11/10 07:43:05;;;;;;;52.88;20.38;;;;;;;14.85;74.91;101654.19;5089964;28;20024;-74
2022/11/10 07:45:31;;;;;;;43.20;16.67;;;;;;;14.89;74.60;101661.91;5089341;28;20066;-77
2022/11/10 07:47:59;;;;;;;41.58;16.67;;;;;;;15.01;74.28;101660.91;5089551;28;20020;-76
2022/11/10 07:50:24;;;;;;;29.13;12.27;;;;;;;15.15;73.72;101657.91;5089149;28;20474;-76
2022/11/10 07:52:50;;;;;;;38.25;8.77;;;;;;;15.10;73.73;101665.56;5089722;28;20024;-75
2022/11/10 07:55:15;;;;;;;25.73;8.55;;;;;;;15.23;74.14;101668.06;5089215;28;20031;-75
2022/11/10 07:57:41;;;;;;;21.45;7.85;;;;;;;15.31;74.20;101673.72;5089281;28;20157;-76
2022/11/10 08:00:07;;;;;;;30.30;8.57;;;;;;;15.29;73.70;101650.47;5071050;28;20028;-75
2022/11/10 08:02:32;;;;;;;36.72;7.70;;;;;;;15.46;73.58;101666.13;5089177;28;20051;-74
2022/11/10 08:04:57;;;;;;;62.90;6.47;;;;;;;15.33;72.09;101673.59;5089366;28;20477;-76
2022/11/10 08:07:23;;;;;;;59.35;7.97;;;;;;;15.24;72.35;101669.81;5052988;28;20121;-76
2022/11/10 08:09:49;;;;;;;42.50;12.27;;;;;;;15.21;72.61;101667.34;5089429;28;20880;-76
2022/11/10 08:12:14;;;;;;;18.23;5.50;;;;;;;15.16;72.15;101647.94;5095194;28;20040;-76
2022/11/10 08:14:40;;;;;;;20.58;4.38;;;;;;;15.39;71.29;101670.34;5079080;28;20021;-76
2022/11/10 08:17:05;;;;;;;17.33;4.35;;;;;;;15.44;70.69;101673.56;5097047;28;20028;-76
2022/11/10 08:19:31;;;;;;;9.60;4.40;;;;;;;15.39;69.77;101668.50;5088534;28;20101;-76
2022/11/10 08:21:56;;;;;;;39.15;5.43;;;;;;;15.31;69.60;101668.31;5036276;28;20036;-76
2022/11/10 08:24:21;;;;;;;23.70;5.63;;;;;;;15.27;69.67;101672.25;5088750;28;20102;-75
2022/11/10 08:26:47;;;;;;;13.80;4.20;;;;;;;15.39;69.40;101671.22;5089059;28;20120;-76
2022/11/10 08:29:12;;;;;;;447.52;37.90;;;;;;;15.47;69.83;101684.13;5088750;28;20156;-76
2022/11/10 08:31:38;;;;;;;27.92;6.93;;;;;;;15.56;69.54;101677.97;5088997;28;20032;-76
2022/11/10 08:34:04;;;;;;;11.73;3.88;;;;;;;15.50;68.01;101668.50;5086201;28;20063;-77
2022/11/10 08:36:30;;;;;;;25.05;4.45;;;;;;;15.59;68.21;101677.69;5087612;28;20159;-76
2022/11/10 08:38:55;;;;;;;44.35;4.57;;;;;;;15.57;67.42;101672.38;5087570;28;20122;-75
2022/11/10 08:41:20;;;;;;;33.05;8.57;;;;;;;15.69;67.04;101673.19;5087749;28;20595;-78
2022/11/10 08:43:46;;;;;;;94.38;8.73;;;;;;;15.68;67.04;101668.78;5088378;28;20031;-78
2022/11/10 08:46:12;;;;;;;49.95;8.43;;;;;;;15.76;67.15;101677.97;5087594;28;20028;-78
2022/11/10 08:48:37;;;;;;;24.55;5.00;;;;;;;15.71;66.64;101665.78;5087750;28;20036;-76
2022/11/10 08:51:03;;;;;;;24.80;4.68;;;;;;;15.91;65.34;101670.34;5087545;28;20563;-76
2022/11/10 08:53:28;;;;;;;25.63;4.75;;;;;;;15.97;66.47;101672.50;5087522;28;20028;-76
2022/11/10 08:55:57;;;;;;;186.35;14.68;;;;;;;16.18;66.89;101676.06;5087615;28;20032;-75
2022/11/10 08:58:23;;;;;;;17.08;6.43;;;;;;;16.25;64.47;101666.38;5087350;28;20020;-76
2022/11/10 09:00:50;;;;;;;121.30;11.48;;;;;;;16.19;64.53;101666.06;5087837;28;20077;-76
2022/11/10 09:03:18;;;;;;;75.40;9.13;;;;;;;16.24;64.34;101653.78;5086876;28;20039;-76
2022/11/10 09:05:45;;;;;;;20.58;6.75;;;;;;;16.44;63.45;101670.19;5086954;28;20124;-76
2022/11/10 09:08:11;;;;;;;44.20;6.63;;;;;;;16.24;63.72;101661.94;5087443;28;20082;-76
2022/11/10 09:10:39;;;;;;;26.65;4.18;;;;;;;16.38;62.88;101670.72;5087713;28;20441;-76
2022/11/10 09:13:05;;;;;;;75.72;6.38;;;;;;;16.17;62.94;101679.78;5087822;28;20507;-77
2022/11/10 09:15:31;;;;;;;87.22;7.13;;;;;;;16.08;64.01;101679.72;5087282;28;20107;-76
2022/11/10 09:17:58;;;;;;;19.80;4.95;;;;;;;16.21;62.97;101675.78;5087645;28;20103;-76
2022/11/10 09:20:25;;;;;;;20.83;5.88;;;;;;;15.97;63.87;101648.09;5088029;28;20039;-77
2022/11/10 09:22:50;;;;;;;18.75;5.13;;;;;;;15.86;63.32;101652.75;5099499;28;20066;-76
2022/11/10 09:25:16;;;;;;;17.33;4.60;;;;;;;15.96;63.50;101678.91;5099419;28;20020;-75
2022/11/10 09:27:41;;;;;;;8.02;3.08;;;;;;;16.02;63.55;101670.28;5093063;28;20060;-76
2022/11/10 09:30:07;;;;;;;8.30;4.10;;;;;;;16.13;64.20;101670.19;5087032;28;20032;-76
2022/11/10 09:32:33;;;;;;;34.97;5.78;;;;;;;16.23;63.56;101676.53;5090196;28;20094;-76
2022/11/10 09:35:00;;;;;;;19.35;4.15;;;;;;;16.30;63.31;101680.41;5090761;28;20138;-75
2022/11/10 09:37:25;;;;;;;10.23;3.63;;;;;;;16.51;63.13;101674.06;5090901;28;20394;-77
2022/11/10 09:39:51;;;;;;;32.58;4.15;;;;;;;16.47;61.94;101676.19;5091200;28;20028;-77
2022/11/10 09:42:33;;;;;;;48.65;4.78;;;;;;;16.44;62.37;101671.03;5090602;28;20024;-76
2022/11/10 09:45:01;;;;;;;;;;;;;;;16.42;62.02;101672.19;5090916;28;20032;-76
2022/11/10 09:47:41;;;;;;;65.93;6.68;;;;;;;16.39;62.68;101635.25;5090687;28;19966;-77
2022/11/10 09:50:13;;;;;;;1999.90;274.77;;;;;;;16.73;62.65;101660.28;5091425;28;20028;-75
2022/11/10 09:52:40;;;;;;;36.40;4.32;;;;;;;16.79;61.66;101659.72;5091443;28;20036;-76
2022/11/10 09:55:15;;;;;;;449.52;36.80;;;;;;;16.75;61.22;101663.75;5073215;28;20403;-77
2022/11/10 09:57:42;;;;;;;27.35;3.95;;;;;;;16.77;61.44;101668.03;5090919;28;20032;-76
2022/11/10 10:00:16;;;;;;;16.15;4.25;;;;;;;16.83;61.91;101658.44;5091337;28;20028;-76
2022/11/10 10:02:47;;;;;;;37.35;4.82;;;;;;;16.81;62.49;101644.16;5040937;28;20491;-76
2022/11/10 10:05:16;;;;;;;31.25;4.55;;;;;;;17.20;60.97;101659.50;5091397;28;20024;-76
2022/11/10 10:07:56;;;;;;;21.67;3.78;;;;;;;17.21;59.83;101666.66;5091391;28;20059;-76
2022/11/10 10:10:39;;;;;;;8.82;2.90;;;;;;;17.08;59.47;101643.47;5091564;28;20028;-76
2022/11/10 10:13:25;;;;;;;46.22;5.30;;;;;;;17.36;59.48;101662.53;5090920;28;20028;-75
2022/11/10 10:16:09;;;;;;;18.92;4.68;;;;;;;17.21;59.78;101663.94;5091340;28;20023;-76
2022/11/10 10:18:46;;;;;;;32.78;7.95;;;;;;;17.07;60.20;101664.34;5091307;28;20133;-76
2022/11/10 10:21:20;;;;;;;11.88;3.38;;;;;;;17.17;59.99;101662.50;5091266;28;20575;-77
2022/11/10 10:23:51;;;;;;;22.88;3.58;;;;;;;17.10;59.17;101628.72;5091577;28;20116;-77
2022/11/10 10:26:21;;;;;;;18.00;3.55;;;;;;;17.14;59.70;101643.75;5091213;28;20078;-75
2022/11/10 10:28:49;;;;;;;11.25;3.10;;;;;;;17.06;59.71;101657.22;5072864;28;20402;-76
2022/11/10 10:31:29;;;;;;;18.58;6.07;;;;;;;17.10;60.13;101650.47;5099151;28;20028;-76
2022/11/10 10:33:54;;;;;;;19.98;6.85;;;;;;;17.05;60.75;101633.75;5104294;28;20146;-76
2022/11/10 10:36:26;;;;;;;28.48;5.78;;;;;;;17.07;61.25;101639.88;5084126;28;20129;-76
2022/11/10 10:39:05;;;;;;;23.42;4.55;;;;;;;17.22;60.71;101649.34;5090795;28;20028;-78
2022/11/10 10:41:33;;;;;;;38.60;5.65;;;;;;;17.31;60.69;101650.34;5090869;28;20032;-77
2022/11/10 10:44:01;;;;;;;726.00;46.58;;;;;;;17.25;61.44;101642.75;5090859;28;20032;-75
2022/11/10 10:46:30;;;;;;;14.45;4.47;;;;;;;17.47;61.23;101634.31;5090871;28;20023;-77
2022/11/10 10:49:11;;;;;;;32.47;7.68;;;;;;;17.59;60.99;101629.59;5090652;28;20096;-76
2022/11/10 10:51:36;;;;;;;23.13;4.68;;;;;;;17.59;61.18;101643.19;5090772;28;20440;-77
2022/11/10 10:54:02;;;;;;;23.05;4.93;;;;;;;17.58;61.58;101634.19;5090632;28;20028;-77
2022/11/10 10:56:32;;;;;;;45.50;5.78;;;;;;;17.60;60.98;101628.59;5090650;28;20031;-77
2022/11/10 10:59:01;;;;;;;19.00;4.20;;;;;;;17.66;60.69;101619.84;5054007;28;20605;-77
2022/11/10 11:01:29;;;;;;;27.77;4.03;;;;;;;17.77;60.46;101630.56;5089722;28;20023;-76
2022/11/10 11:03:55;;;;;;;53.10;6.18;;;;;;;17.51;61.08;101599.50;5089438;28;20043;-77
2022/11/10 11:06:29;;;;;;;767.45;63.72;;;;;;;17.39;61.88;101620.56;5053018;28;20032;-76
2022/11/10 11:08:59;;;;;;;69.15;6.18;;;;;;;17.33;61.65;101622.03;5089715;28;20031;-76
2022/11/10 11:11:31;;;;;;;51.10;6.55;;;;;;;17.30;62.58;101625.03;5090121;28;20116;-76
2022/11/10 11:14:23;;;;;;;21.13;4.03;;;;;;;17.52;61.84;101623.84;5053846;28;20089;-76
2022/11/10 11:16:53;;;;;;;10.43;2.92;;;;;;;17.58;61.69;101630.59;5089782;28;20020;-75
2022/11/10 11:19:21;;;;;;;7.55;3.15;;;;;;;17.71;61.13;101621.13;5090020;28;20075;-76
2022/11/10 11:22:02;;;;;;;22.13;8.40;;;;;;;17.39;61.29;101583.38;5090031;28;20035;-77
2022/11/10 11:24:57;;;;;;;71.55;7.35;;;;;;;17.89;60.81;101619.34;5089657;28;20035;-77
2022/11/10 11:28:02;;;;;;;9.93;4.07;;;;;;;18.08;59.94;101617.56;5088906;28;20036;-77
2022/11/10 11:30:39;;;;;;;26.42;3.58;;;;;;;18.06;60.10;101616.88;4987945;28;20049;-76